sensor_id;sensor_type;location;lat;lon;timestamp;P1;durP1;ratioP1;P2;durP2;ratioP2
4585;SDS011;2305;50.118;8.952;2022-12-24T00:00:12;7.83;;;2.30;;
4585;SDS011;2305;50.118;8.952;2022-12-24T00:02:41;13.43;;;2.50;;
4585;SDS011;2305;50.118;8.952;2022-12-24T00:05:09;8.50;;;2.50;;
4585;SDS011;2305;50.118;8.952;2022-12-24T00:07:37;8.67;;;1.87;;
4585;SDS011;2305;50.118;8.952;2022-12-24T00:10:06;11.13;;;2.53;;
4585;SDS011;2305;50.118;8.952;2022-12-24T00:12:37;9.20;;;2.50;;
4585;SDS011;2305;50.118;8.952;2022-12-24T00:15:09;8.83;;;2.17;;
4585;SDS011;2305;50.118;8.952;2022-12-24T00:17:37;11.80;;;2.40;;
4585;SDS011;2305;50.118;8.952;2022-12-24T00:20:06;9.37;;;2.33;;
4585;SDS011;2305;50.118;8.952;2022-12-24T00:22:35;11.20;;;2.37;;
4585;SDS011;2305;50.118;8.952;2022-12-24T00:25:04;7.77;;;2.07;;
4585;SDS011;2305;50.118;8.952;2022-12-24T00:27:35;8.33;;;1.83;;
4585;SDS011;2305;50.118;8.952;2022-12-24T00:30:03;9.60;;;2.43;;
4585;SDS011;2305;50.118;8.952;2022-12-24T00:32:33;10.30;;;2.10;;
4585;SDS011;2305;50.118;8.952;2022-12-24T00:35:03;11.73;;;1.87;;
4585;SDS011;2305;50.118;8.952;2022-12-24T00:37:32;8.20;;;3.07;;
4585;SDS011;2305;50.118;8.952;2022-12-24T00:40:00;14.10;;;2.73;;
4585;SDS011;2305;50.118;8.952;2022-12-24T00:42:28;12.40;;;2.83;;
4585;SDS011;2305;50.118;8.952;2022-12-24T00:44:57;7.67;;;1.87;;
4585;SDS011;2305;50.118;8.952;2022-12-24T00:47:27;22.13;;;2.83;;
4585;SDS011;2305;50.118;8.952;2022-12-24T00:49:57;8.00;;;2.30;;
4585;SDS011;2305;50.118;8.952;2022-12-24T00:52:27;14.43;;;2.27;;
4585;SDS011;2305;50.118;8.952;2022-12-24T00:54:55;10.97;;;1.97;;
4585;SDS011;2305;50.118;8.952;2022-12-24T00:57:25;12.27;;;2.30;;
4585;SDS011;2305;50.118;8.952;2022-12-24T00:59:54;10.47;;;2.03;;
4585;SDS011;2305;50.118;8.952;2022-12-24T01:02:23;8.83;;;2.00;;
4585;SDS011;2305;50.118;8.952;2022-12-24T01:04:58;9.03;;;2.67;;
4585;SDS011;2305;50.118;8.952;2022-12-24T01:07:39;9.63;;;2.67;;
4585;SDS011;2305;50.118;8.952;2022-12-24T01:10:11;9.60;;;2.70;;
4585;SDS011;2305;50.118;8.952;2022-12-24T01:12:41;10.03;;;1.97;;
4585;SDS011;2305;50.118;8.952;2022-12-24T01:15:15;8.43;;;2.20;;
4585;SDS011;2305;50.118;8.952;2022-12-24T01:17:45;4.83;;;2.50;;
4585;SDS011;2305;50.118;8.952;2022-12-24T01:20:16;7.27;;;2.20;;
4585;SDS011;2305;50.118;8.952;2022-12-24T01:22:45;8.60;;;2.50;;
4585;SDS011;2305;50.118;8.952;2022-12-24T01:25:14;7.17;;;2.10;;
4585;SDS011;2305;50.118;8.952;2022-12-24T01:27:43;12.77;;;2.57;;
4585;SDS011;2305;50.118;8.952;2022-12-24T01:30:12;5.47;;;1.83;;
4585;SDS011;2305;50.118;8.952;2022-12-24T01:32:41;7.20;;;2.13;;
4585;SDS011;2305;50.118;8.952;2022-12-24T01:35:09;9.60;;;2.27;;
4585;SDS011;2305;50.118;8.952;2022-12-24T01:37:41;5.90;;;2.27;;
4585;SDS011;2305;50.118;8.952;2022-12-24T01:40:13;8.07;;;2.20;;
4585;SDS011;2305;50.118;8.952;2022-12-24T01:43:04;9.70;;;1.80;;
4585;SDS011;2305;50.118;8.952;2022-12-24T01:45:55;11.60;;;2.30;;
4585;SDS011;2305;50.118;8.952;2022-12-24T01:48:29;6.03;;;1.80;;
4585;SDS011;2305;50.118;8.952;2022-12-24T01:51:03;11.63;;;2.50;;
4585;SDS011;2305;50.118;8.952;2022-12-24T01:53:38;13.43;;;1.77;;
4585;SDS011;2305;50.118;8.952;2022-12-24T01:56:13;10.30;;;2.20;;
4585;SDS011;2305;50.118;8.952;2022-12-24T01:58:44;8.43;;;2.17;;
4585;SDS011;2305;50.118;8.952;2022-12-24T02:01:17;12.80;;;2.13;;
4585;SDS011;2305;50.118;8.952;2022-12-24T02:03:47;13.90;;;2.10;;
4585;SDS011;2305;50.118;8.952;2022-12-24T02:06:20;9.47;;;2.03;;
4585;SDS011;2305;50.118;8.952;2022-12-24T02:08:51;10.27;;;2.47;;
4585;SDS011;2305;50.118;8.952;2022-12-24T02:11:19;10.97;;;1.87;;
4585;SDS011;2305;50.118;8.952;2022-12-24T02:13:55;16.27;;;2.30;;
4585;SDS011;2305;50.118;8.952;2022-12-24T02:16:33;14.57;;;2.77;;
4585;SDS011;2305;50.118;8.952;2022-12-24T02:19:22;14.00;;;2.53;;
4585;SDS011;2305;50.118;8.952;2022-12-24T02:22:22;7.40;;;2.10;;
4585;SDS011;2305;50.118;8.952;2022-12-24T02:25:19;18.50;;;2.47;;
4585;SDS011;2305;50.118;8.952;2022-12-24T02:28:01;6.93;;;1.77;;
4585;SDS011;2305;50.118;8.952;2022-12-24T02:30:40;20.77;;;2.67;;
4585;SDS011;2305;50.118;8.952;2022-12-24T02:33:13;7.63;;;1.93;;
4585;SDS011;2305;50.118;8.952;2022-12-24T02:35:48;8.70;;;2.67;;
4585;SDS011;2305;50.118;8.952;2022-12-24T02:38:21;12.03;;;1.77;;
4585;SDS011;2305;50.118;8.952;2022-12-24T02:40:57;8.03;;;2.20;;
4585;SDS011;2305;50.118;8.952;2022-12-24T02:43:30;11.67;;;2.83;;
4585;SDS011;2305;50.118;8.952;2022-12-24T02:46:07;11.57;;;2.47;;
4585;SDS011;2305;50.118;8.952;2022-12-24T02:48:46;8.07;;;2.30;;
4585;SDS011;2305;50.118;8.952;2022-12-24T02:51:23;10.73;;;2.70;;
4585;SDS011;2305;50.118;8.952;2022-12-24T02:53:52;11.17;;;2.77;;
4585;SDS011;2305;50.118;8.952;2022-12-24T02:56:34;10.93;;;2.40;;
4585;SDS011;2305;50.118;8.952;2022-12-24T02:59:19;13.63;;;2.53;;
4585;SDS011;2305;50.118;8.952;2022-12-24T03:02:25;13.23;;;1.93;;
4585;SDS011;2305;50.118;8.952;2022-12-24T03:05:06;10.63;;;2.60;;
4585;SDS011;2305;50.118;8.952;2022-12-24T03:07:44;8.60;;;2.70;;
4585;SDS011;2305;50.118;8.952;2022-12-24T03:10:25;22.23;;;2.43;;
4585;SDS011;2305;50.118;8.952;2022-12-24T03:13:00;13.30;;;2.50;;
4585;SDS011;2305;50.118;8.952;2022-12-24T03:15:33;4.77;;;1.80;;
4585;SDS011;2305;50.118;8.952;2022-12-24T03:18:05;15.70;;;3.00;;
4585;SDS011;2305;50.118;8.952;2022-12-24T03:20:38;9.50;;;2.23;;
4585;SDS011;2305;50.118;8.952;2022-12-24T03:23:07;8.30;;;2.40;;
4585;SDS011;2305;50.118;8.952;2022-12-24T03:25:37;18.90;;;2.90;;
4585;SDS011;2305;50.118;8.952;2022-12-24T03:28:08;8.47;;;2.17;;
4585;SDS011;2305;50.118;8.952;2022-12-24T03:30:42;13.50;;;2.70;;
4585;SDS011;2305;50.118;8.952;2022-12-24T03:33:16;17.20;;;2.70;;
4585;SDS011;2305;50.118;8.952;2022-12-24T03:35:47;11.73;;;2.77;;
4585;SDS011;2305;50.118;8.952;2022-12-24T03:38:15;10.03;;;2.60;;
4585;SDS011;2305;50.118;8.952;2022-12-24T03:40:48;13.13;;;2.40;;
4585;SDS011;2305;50.118;8.952;2022-12-24T03:43:16;10.37;;;2.20;;
4585;SDS011;2305;50.118;8.952;2022-12-24T03:45:46;7.77;;;2.07;;
4585;SDS011;2305;50.118;8.952;2022-12-24T03:48:17;9.93;;;3.30;;
4585;SDS011;2305;50.118;8.952;2022-12-24T03:50:45;11.73;;;2.23;;
4585;SDS011;2305;50.118;8.952;2022-12-24T03:53:13;5.83;;;2.00;;
4585;SDS011;2305;50.118;8.952;2022-12-24T03:55:41;11.70;;;2.50;;
4585;SDS011;2305;50.118;8.952;2022-12-24T03:58:10;12.20;;;2.40;;
4585;SDS011;2305;50.118;8.952;2022-12-24T04:00:38;15.43;;;2.97;;
4585;SDS011;2305;50.118;8.952;2022-12-24T04:03:09;8.97;;;2.10;;
4585;SDS011;2305;50.118;8.952;2022-12-24T04:05:39;13.00;;;2.10;;
4585;SDS011;2305;50.118;8.952;2022-12-24T04:08:06;6.53;;;2.10;;
4585;SDS011;2305;50.118;8.952;2022-12-24T04:10:35;16.57;;;2.70;;
4585;SDS011;2305;50.118;8.952;2022-12-24T04:13:03;8.40;;;2.57;;
4585;SDS011;2305;50.118;8.952;2022-12-24T04:15:31;12.63;;;2.40;;
4585;SDS011;2305;50.118;8.952;2022-12-24T04:17:59;8.97;;;2.30;;
4585;SDS011;2305;50.118;8.952;2022-12-24T04:20:27;17.13;;;4.53;;
4585;SDS011;2305;50.118;8.952;2022-12-24T04:22:57;11.63;;;2.20;;
4585;SDS011;2305;50.118;8.952;2022-12-24T04:25:27;5.70;;;1.80;;
4585;SDS011;2305;50.118;8.952;2022-12-24T04:27:56;8.60;;;1.70;;
4585;SDS011;2305;50.118;8.952;2022-12-24T04:30:25;13.43;;;2.47;;
4585;SDS011;2305;50.118;8.952;2022-12-24T04:32:56;8.57;;;1.90;;
4585;SDS011;2305;50.118;8.952;2022-12-24T04:35:25;9.03;;;2.50;;
4585;SDS011;2305;50.118;8.952;2022-12-24T04:38:00;8.60;;;2.17;;
4585;SDS011;2305;50.118;8.952;2022-12-24T04:40:28;11.23;;;2.67;;
4585;SDS011;2305;50.118;8.952;2022-12-24T04:42:56;10.37;;;2.40;;
4585;SDS011;2305;50.118;8.952;2022-12-24T04:45:24;18.77;;;2.33;;
4585;SDS011;2305;50.118;8.952;2022-12-24T04:47:52;7.20;;;2.00;;
4585;SDS011;2305;50.118;8.952;2022-12-24T04:50:24;9.17;;;2.17;;
4585;SDS011;2305;50.118;8.952;2022-12-24T04:53:01;12.83;;;2.30;;
4585;SDS011;2305;50.118;8.952;2022-12-24T04:55:32;8.60;;;2.20;;
4585;SDS011;2305;50.118;8.952;2022-12-24T04:58:03;8.30;;;2.40;;
4585;SDS011;2305;50.118;8.952;2022-12-24T05:00:34;14.40;;;2.60;;
4585;SDS011;2305;50.118;8.952;2022-12-24T05:03:03;11.57;;;2.37;;
4585;SDS011;2305;50.118;8.952;2022-12-24T05:05:34;7.00;;;2.10;;
4585;SDS011;2305;50.118;8.952;2022-12-24T05:08:04;8.63;;;2.17;;
4585;SDS011;2305;50.118;8.952;2022-12-24T05:10:34;13.30;;;2.57;;
4585;SDS011;2305;50.118;8.952;2022-12-24T05:13:04;9.57;;;2.60;;
4585;SDS011;2305;50.118;8.952;2022-12-24T05:15:33;11.60;;;2.60;;
4585;SDS011;2305;50.118;8.952;2022-12-24T05:18:01;7.77;;;1.90;;
4585;SDS011;2305;50.118;8.952;2022-12-24T05:20:29;13.60;;;2.60;;
4585;SDS011;2305;50.118;8.952;2022-12-24T05:22:58;10.93;;;3.17;;
4585;SDS011;2305;50.118;8.952;2022-12-24T05:25:45;8.20;;;2.50;;
4585;SDS011;2305;50.118;8.952;2022-12-24T05:28:31;10.27;;;2.30;;
4585;SDS011;2305;50.118;8.952;2022-12-24T05:30:59;11.83;;;2.50;;
4585;SDS011;2305;50.118;8.952;2022-12-24T05:33:28;12.53;;;2.77;;
4585;SDS011;2305;50.118;8.952;2022-12-24T05:35:55;11.87;;;2.30;;
4585;SDS011;2305;50.118;8.952;2022-12-24T05:38:27;10.53;;;2.63;;
4585;SDS011;2305;50.118;8.952;2022-12-24T05:40:57;13.63;;;2.37;;
4585;SDS011;2305;50.118;8.952;2022-12-24T05:43:26;16.43;;;2.57;;
4585;SDS011;2305;50.118;8.952;2022-12-24T05:45:56;19.77;;;3.00;;
4585;SDS011;2305;50.118;8.952;2022-12-24T05:48:26;9.57;;;1.83;;
4585;SDS011;2305;50.118;8.952;2022-12-24T05:50:55;11.33;;;2.77;;
4585;SDS011;2305;50.118;8.952;2022-12-24T05:53:23;17.10;;;2.63;;
4585;SDS011;2305;50.118;8.952;2022-12-24T05:55:53;10.83;;;2.53;;
4585;SDS011;2305;50.118;8.952;2022-12-24T05:58:22;10.93;;;1.97;;
4585;SDS011;2305;50.118;8.952;2022-12-24T06:00:51;7.90;;;2.13;;
4585;SDS011;2305;50.118;8.952;2022-12-24T06:03:19;8.20;;;1.97;;
4585;SDS011;2305;50.118;8.952;2022-12-24T06:05:48;12.10;;;2.90;;
4585;SDS011;2305;50.118;8.952;2022-12-24T06:08:17;10.03;;;3.00;;
4585;SDS011;2305;50.118;8.952;2022-12-24T06:10:46;13.30;;;2.83;;
4585;SDS011;2305;50.118;8.952;2022-12-24T06:13:24;9.90;;;2.37;;
4585;SDS011;2305;50.118;8.952;2022-12-24T06:15:56;9.33;;;2.00;;
4585;SDS011;2305;50.118;8.952;2022-12-24T06:18:27;10.83;;;2.10;;
4585;SDS011;2305;50.118;8.952;2022-12-24T06:20:58;15.63;;;2.43;;
4585;SDS011;2305;50.118;8.952;2022-12-24T06:23:27;8.20;;;2.93;;
4585;SDS011;2305;50.118;8.952;2022-12-24T06:25:59;10.13;;;2.47;;
4585;SDS011;2305;50.118;8.952;2022-12-24T06:28:31;9.40;;;2.50;;
4585;SDS011;2305;50.118;8.952;2022-12-24T06:31:02;8.90;;;2.10;;
4585;SDS011;2305;50.118;8.952;2022-12-24T06:33:32;13.27;;;2.50;;
4585;SDS011;2305;50.118;8.952;2022-12-24T06:36:04;7.60;;;2.10;;
4585;SDS011;2305;50.118;8.952;2022-12-24T06:38:42;9.90;;;2.60;;
4585;SDS011;2305;50.118;8.952;2022-12-24T06:41:10;10.00;;;2.07;;
4585;SDS011;2305;50.118;8.952;2022-12-24T06:43:43;14.17;;;3.20;;
4585;SDS011;2305;50.118;8.952;2022-12-24T06:46:15;14.93;;;3.00;;
4585;SDS011;2305;50.118;8.952;2022-12-24T06:48:45;10.67;;;2.57;;
4585;SDS011;2305;50.118;8.952;2022-12-24T06:51:15;8.93;;;2.80;;
4585;SDS011;2305;50.118;8.952;2022-12-24T06:53:46;18.20;;;2.93;;
4585;SDS011;2305;50.118;8.952;2022-12-24T06:56:19;20.10;;;3.27;;
4585;SDS011;2305;50.118;8.952;2022-12-24T06:58:50;12.40;;;3.00;;
4585;SDS011;2305;50.118;8.952;2022-12-24T07:01:18;16.93;;;4.13;;
4585;SDS011;2305;50.118;8.952;2022-12-24T07:03:49;12.50;;;2.70;;
4585;SDS011;2305;50.118;8.952;2022-12-24T07:06:18;12.07;;;2.93;;
4585;SDS011;2305;50.118;8.952;2022-12-24T07:08:50;19.40;;;3.10;;
4585;SDS011;2305;50.118;8.952;2022-12-24T07:11:19;10.93;;;2.40;;
4585;SDS011;2305;50.118;8.952;2022-12-24T07:14:07;22.80;;;3.17;;
4585;SDS011;2305;50.118;8.952;2022-12-24T07:16:40;8.97;;;3.13;;
4585;SDS011;2305;50.118;8.952;2022-12-24T07:19:11;19.60;;;3.60;;
4585;SDS011;2305;50.118;8.952;2022-12-24T07:21:39;17.83;;;4.03;;
4585;SDS011;2305;50.118;8.952;2022-12-24T07:24:09;16.87;;;2.93;;
4585;SDS011;2305;50.118;8.952;2022-12-24T07:26:41;15.67;;;3.50;;
4585;SDS011;2305;50.118;8.952;2022-12-24T07:29:11;13.13;;;2.53;;
4585;SDS011;2305;50.118;8.952;2022-12-24T07:31:41;18.70;;;3.67;;
4585;SDS011;2305;50.118;8.952;2022-12-24T07:34:10;21.30;;;2.80;;
4585;SDS011;2305;50.118;8.952;2022-12-24T07:36:41;29.30;;;4.00;;
4585;SDS011;2305;50.118;8.952;2022-12-24T07:39:09;21.33;;;2.97;;
4585;SDS011;2305;50.118;8.952;2022-12-24T07:41:38;11.23;;;3.43;;
4585;SDS011;2305;50.118;8.952;2022-12-24T07:44:11;11.10;;;2.97;;
4585;SDS011;2305;50.118;8.952;2022-12-24T07:46:43;17.33;;;2.90;;
4585;SDS011;2305;50.118;8.952;2022-12-24T07:49:12;15.80;;;2.90;;
4585;SDS011;2305;50.118;8.952;2022-12-24T07:51:41;14.07;;;3.17;;
4585;SDS011;2305;50.118;8.952;2022-12-24T07:54:11;21.93;;;3.20;;
4585;SDS011;2305;50.118;8.952;2022-12-24T07:56:40;17.63;;;4.43;;
4585;SDS011;2305;50.118;8.952;2022-12-24T07:59:13;15.63;;;4.20;;
4585;SDS011;2305;50.118;8.952;2022-12-24T08:01:41;15.33;;;3.20;;
4585;SDS011;2305;50.118;8.952;2022-12-24T08:04:11;19.10;;;3.73;;
4585;SDS011;2305;50.118;8.952;2022-12-24T08:06:43;12.43;;;2.93;;
4585;SDS011;2305;50.118;8.952;2022-12-24T08:09:15;14.23;;;3.77;;
4585;SDS011;2305;50.118;8.952;2022-12-24T08:11:47;15.77;;;3.10;;
4585;SDS011;2305;50.118;8.952;2022-12-24T08:14:22;16.13;;;3.90;;
4585;SDS011;2305;50.118;8.952;2022-12-24T08:16:50;20.43;;;4.50;;
4585;SDS011;2305;50.118;8.952;2022-12-24T08:19:20;17.63;;;3.53;;
4585;SDS011;2305;50.118;8.952;2022-12-24T08:21:50;12.87;;;3.90;;
4585;SDS011;2305;50.118;8.952;2022-12-24T08:24:23;19.37;;;3.80;;
4585;SDS011;2305;50.118;8.952;2022-12-24T08:26:51;17.50;;;3.77;;
4585;SDS011;2305;50.118;8.952;2022-12-24T08:29:21;20.87;;;4.03;;
4585;SDS011;2305;50.118;8.952;2022-12-24T08:31:51;20.90;;;3.53;;
4585;SDS011;2305;50.118;8.952;2022-12-24T08:34:19;26.57;;;4.00;;
4585;SDS011;2305;50.118;8.952;2022-12-24T08:36:51;13.20;;;3.73;;
4585;SDS011;2305;50.118;8.952;2022-12-24T08:39:21;23.33;;;4.17;;
4585;SDS011;2305;50.118;8.952;2022-12-24T08:41:54;14.77;;;3.37;;
4585;SDS011;2305;50.118;8.952;2022-12-24T08:44:26;13.20;;;3.27;;
4585;SDS011;2305;50.118;8.952;2022-12-24T08:46:55;23.33;;;3.50;;
4585;SDS011;2305;50.118;8.952;2022-12-24T08:49:25;17.07;;;3.87;;
4585;SDS011;2305;50.118;8.952;2022-12-24T08:51:53;17.67;;;4.20;;
4585;SDS011;2305;50.118;8.952;2022-12-24T08:54:23;13.63;;;3.13;;
4585;SDS011;2305;50.118;8.952;2022-12-24T08:56:55;14.60;;;3.53;;
4585;SDS011;2305;50.118;8.952;2022-12-24T08:59:23;23.97;;;4.00;;
4585;SDS011;2305;50.118;8.952;2022-12-24T09:01:53;25.07;;;4.00;;
4585;SDS011;2305;50.118;8.952;2022-12-24T09:04:23;13.83;;;3.20;;
4585;SDS011;2305;50.118;8.952;2022-12-24T09:06:51;30.03;;;4.50;;
4585;SDS011;2305;50.118;8.952;2022-12-24T09:09:19;14.97;;;3.73;;
4585;SDS011;2305;50.118;8.952;2022-12-24T09:11:50;17.63;;;4.67;;
4585;SDS011;2305;50.118;8.952;2022-12-24T09:14:21;20.43;;;3.60;;
4585;SDS011;2305;50.118;8.952;2022-12-24T09:16:50;27.10;;;4.50;;
4585;SDS011;2305;50.118;8.952;2022-12-24T09:19:20;30.30;;;4.20;;
4585;SDS011;2305;50.118;8.952;2022-12-24T09:21:49;24.33;;;4.10;;
4585;SDS011;2305;50.118;8.952;2022-12-24T09:24:17;16.10;;;3.10;;
4585;SDS011;2305;50.118;8.952;2022-12-24T09:26:48;11.63;;;3.03;;
4585;SDS011;2305;50.118;8.952;2022-12-24T09:29:27;14.43;;;3.40;;
4585;SDS011;2305;50.118;8.952;2022-12-24T09:31:59;19.77;;;4.20;;
4585;SDS011;2305;50.118;8.952;2022-12-24T09:34:29;18.10;;;3.80;;
4585;SDS011;2305;50.118;8.952;2022-12-24T09:36:57;13.10;;;3.60;;
4585;SDS011;2305;50.118;8.952;2022-12-24T09:39:28;15.20;;;3.53;;
4585;SDS011;2305;50.118;8.952;2022-12-24T09:41:57;22.30;;;3.90;;
4585;SDS011;2305;50.118;8.952;2022-12-24T09:44:35;15.53;;;3.60;;
4585;SDS011;2305;50.118;8.952;2022-12-24T09:47:11;19.10;;;4.13;;
4585;SDS011;2305;50.118;8.952;2022-12-24T09:49:51;19.13;;;5.00;;
4585;SDS011;2305;50.118;8.952;2022-12-24T09:52:26;21.37;;;4.30;;
4585;SDS011;2305;50.118;8.952;2022-12-24T09:55:02;24.53;;;4.93;;
4585;SDS011;2305;50.118;8.952;2022-12-24T09:57:37;24.90;;;4.10;;
4585;SDS011;2305;50.118;8.952;2022-12-24T10:00:15;25.30;;;5.20;;
4585;SDS011;2305;50.118;8.952;2022-12-24T10:02:47;21.30;;;5.07;;
4585;SDS011;2305;50.118;8.952;2022-12-24T10:05:21;21.77;;;6.43;;
4585;SDS011;2305;50.118;8.952;2022-12-24T10:07:57;17.30;;;3.90;;
4585;SDS011;2305;50.118;8.952;2022-12-24T10:10:41;21.13;;;4.20;;
4585;SDS011;2305;50.118;8.952;2022-12-24T10:13:22;17.20;;;3.50;;
4585;SDS011;2305;50.118;8.952;2022-12-24T10:15:59;17.20;;;4.30;;
4585;SDS011;2305;50.118;8.952;2022-12-24T10:18:37;38.10;;;6.33;;
4585;SDS011;2305;50.118;8.952;2022-12-24T10:21:20;31.30;;;4.77;;
4585;SDS011;2305;50.118;8.952;2022-12-24T10:23:58;18.23;;;5.20;;
4585;SDS011;2305;50.118;8.952;2022-12-24T10:26:34;15.17;;;3.47;;
4585;SDS011;2305;50.118;8.952;2022-12-24T10:29:21;20.63;;;3.97;;
4585;SDS011;2305;50.118;8.952;2022-12-24T10:31:53;21.53;;;4.30;;
4585;SDS011;2305;50.118;8.952;2022-12-24T10:34:27;25.30;;;4.60;;
4585;SDS011;2305;50.118;8.952;2022-12-24T10:37:01;17.97;;;4.77;;
4585;SDS011;2305;50.118;8.952;2022-12-24T10:39:29;24.37;;;4.57;;
4585;SDS011;2305;50.118;8.952;2022-12-24T10:42:00;22.80;;;4.23;;
4585;SDS011;2305;50.118;8.952;2022-12-24T10:44:30;26.50;;;3.73;;
4585;SDS011;2305;50.118;8.952;2022-12-24T10:47:02;24.47;;;4.07;;
4585;SDS011;2305;50.118;8.952;2022-12-24T10:49:35;30.33;;;4.90;;
4585;SDS011;2305;50.118;8.952;2022-12-24T10:52:14;17.67;;;3.90;;
4585;SDS011;2305;50.118;8.952;2022-12-24T10:57:37;16.47;;;3.90;;
4585;SDS011;2305;50.118;8.952;2022-12-24T11:00:11;24.00;;;4.30;;
4585;SDS011;2305;50.118;8.952;2022-12-24T11:02:49;24.30;;;4.03;;
4585;SDS011;2305;50.118;8.952;2022-12-24T11:05:35;22.97;;;5.00;;
4585;SDS011;2305;50.118;8.952;2022-12-24T11:08:16;17.60;;;3.80;;
4585;SDS011;2305;50.118;8.952;2022-12-24T11:10:53;23.83;;;3.80;;
4585;SDS011;2305;50.118;8.952;2022-12-24T11:13:27;21.90;;;4.80;;
4585;SDS011;2305;50.118;8.952;2022-12-24T11:16:06;22.03;;;4.17;;
4585;SDS011;2305;50.118;8.952;2022-12-24T11:18:46;18.53;;;4.63;;
4585;SDS011;2305;50.118;8.952;2022-12-24T11:21:21;16.73;;;4.33;;
4585;SDS011;2305;50.118;8.952;2022-12-24T11:23:53;24.67;;;4.50;;
4585;SDS011;2305;50.118;8.952;2022-12-24T11:26:26;14.40;;;3.20;;
4585;SDS011;2305;50.118;8.952;2022-12-24T11:29:11;19.73;;;4.00;;
4585;SDS011;2305;50.118;8.952;2022-12-24T11:31:44;22.70;;;4.47;;
4585;SDS011;2305;50.118;8.952;2022-12-24T11:34:26;19.57;;;4.70;;
4585;SDS011;2305;50.118;8.952;2022-12-24T11:37:06;21.93;;;4.30;;
4585;SDS011;2305;50.118;8.952;2022-12-24T11:39:43;15.30;;;3.83;;
4585;SDS011;2305;50.118;8.952;2022-12-24T11:42:24;23.47;;;4.90;;
4585;SDS011;2305;50.118;8.952;2022-12-24T11:44:58;17.87;;;3.60;;
4585;SDS011;2305;50.118;8.952;2022-12-24T11:47:32;17.50;;;3.70;;
4585;SDS011;2305;50.118;8.952;2022-12-24T11:50:19;22.57;;;3.70;;
4585;SDS011;2305;50.118;8.952;2022-12-24T11:52:58;24.00;;;3.87;;
4585;SDS011;2305;50.118;8.952;2022-12-24T11:58:30;15.07;;;3.40;;
4585;SDS011;2305;50.118;8.952;2022-12-24T12:01:09;14.27;;;3.37;;
4585;SDS011;2305;50.118;8.952;2022-12-24T12:03:44;20.43;;;4.00;;
4585;SDS011;2305;50.118;8.952;2022-12-24T12:06:19;12.23;;;3.80;;
4585;SDS011;2305;50.118;8.952;2022-12-24T12:08:55;19.50;;;3.50;;
4585;SDS011;2305;50.118;8.952;2022-12-24T12:11:27;14.37;;;3.30;;
4585;SDS011;2305;50.118;8.952;2022-12-24T12:13:58;24.47;;;3.73;;
4585;SDS011;2305;50.118;8.952;2022-12-24T12:16:31;19.23;;;3.63;;
4585;SDS011;2305;50.118;8.952;2022-12-24T12:19:20;21.90;;;4.00;;
4585;SDS011;2305;50.118;8.952;2022-12-24T12:21:51;18.93;;;4.60;;
4585;SDS011;2305;50.118;8.952;2022-12-24T12:24:21;16.27;;;4.40;;
4585;SDS011;2305;50.118;8.952;2022-12-24T12:27:02;21.87;;;4.40;;
4585;SDS011;2305;50.118;8.952;2022-12-24T12:29:38;18.30;;;4.60;;
4585;SDS011;2305;50.118;8.952;2022-12-24T12:32:15;20.30;;;4.77;;
4585;SDS011;2305;50.118;8.952;2022-12-24T12:34:57;21.30;;;4.77;;
4585;SDS011;2305;50.118;8.952;2022-12-24T12:37:30;27.83;;;4.63;;
4585;SDS011;2305;50.118;8.952;2022-12-24T12:40:05;17.70;;;3.63;;
4585;SDS011;2305;50.118;8.952;2022-12-24T12:42:42;24.93;;;5.30;;
4585;SDS011;2305;50.118;8.952;2022-12-24T12:45:29;12.33;;;4.07;;
4585;SDS011;2305;50.118;8.952;2022-12-24T12:48:26;27.30;;;4.40;;
4585;SDS011;2305;50.118;8.952;2022-12-24T12:51:06;17.00;;;4.10;;
4585;SDS011;2305;50.118;8.952;2022-12-24T12:54:03;19.90;;;3.83;;
4585;SDS011;2305;50.118;8.952;2022-12-24T12:56:46;19.20;;;3.90;;
4585;SDS011;2305;50.118;8.952;2022-12-24T12:59:24;16.10;;;4.47;;
4585;SDS011;2305;50.118;8.952;2022-12-24T13:02:08;14.67;;;3.37;;
4585;SDS011;2305;50.118;8.952;2022-12-24T13:04:56;28.60;;;4.30;;
4585;SDS011;2305;50.118;8.952;2022-12-24T13:10:52;14.17;;;3.10;;
4585;SDS011;2305;50.118;8.952;2022-12-24T13:13:34;13.70;;;3.40;;
4585;SDS011;2305;50.118;8.952;2022-12-24T13:16:16;13.30;;;3.70;;
4585;SDS011;2305;50.118;8.952;2022-12-24T13:19:03;18.77;;;5.33;;
4585;SDS011;2305;50.118;8.952;2022-12-24T13:21:46;23.23;;;4.50;;
4585;SDS011;2305;50.118;8.952;2022-12-24T13:24:22;20.13;;;4.63;;
4585;SDS011;2305;50.118;8.952;2022-12-24T13:27:00;25.70;;;3.87;;
4585;SDS011;2305;50.118;8.952;2022-12-24T13:29:39;13.70;;;3.47;;
4585;SDS011;2305;50.118;8.952;2022-12-24T13:35:31;30.17;;;3.80;;
4585;SDS011;2305;50.118;8.952;2022-12-24T13:44:20;20.03;;;4.07;;
4585;SDS011;2305;50.118;8.952;2022-12-24T13:46:51;19.77;;;4.23;;
4585;SDS011;2305;50.118;8.952;2022-12-24T13:49:26;23.27;;;4.00;;
4585;SDS011;2305;50.118;8.952;2022-12-24T13:52:12;21.20;;;5.40;;
4585;SDS011;2305;50.118;8.952;2022-12-24T13:57:42;17.57;;;3.30;;
4585;SDS011;2305;50.118;8.952;2022-12-24T14:00:26;16.27;;;3.97;;
4585;SDS011;2305;50.118;8.952;2022-12-24T14:03:03;15.23;;;3.50;;
4585;SDS011;2305;50.118;8.952;2022-12-24T14:05:44;16.87;;;3.37;;
4585;SDS011;2305;50.118;8.952;2022-12-24T14:08:26;15.20;;;3.30;;
4585;SDS011;2305;50.118;8.952;2022-12-24T14:11:01;16.60;;;2.90;;
4585;SDS011;2305;50.118;8.952;2022-12-24T14:16:41;20.83;;;3.73;;
4585;SDS011;2305;50.118;8.952;2022-12-24T14:19:13;19.07;;;4.20;;
4585;SDS011;2305;50.118;8.952;2022-12-24T14:21:51;14.50;;;3.23;;
4585;SDS011;2305;50.118;8.952;2022-12-24T14:24:27;13.63;;;4.10;;
4585;SDS011;2305;50.118;8.952;2022-12-24T14:27:05;18.60;;;3.83;;
4585;SDS011;2305;50.118;8.952;2022-12-24T14:29:42;21.60;;;3.87;;
4585;SDS011;2305;50.118;8.952;2022-12-24T14:32:15;16.00;;;3.90;;
4585;SDS011;2305;50.118;8.952;2022-12-24T14:34:44;20.70;;;3.80;;
4585;SDS011;2305;50.118;8.952;2022-12-24T14:37:15;20.13;;;4.27;;
4585;SDS011;2305;50.118;8.952;2022-12-24T14:39:46;18.13;;;4.70;;
4585;SDS011;2305;50.118;8.952;2022-12-24T14:42:28;14.50;;;3.60;;
4585;SDS011;2305;50.118;8.952;2022-12-24T14:45:06;18.00;;;4.70;;
4585;SDS011;2305;50.118;8.952;2022-12-24T14:47:48;9.80;;;3.73;;
4585;SDS011;2305;50.118;8.952;2022-12-24T14:50:33;16.60;;;4.00;;
4585;SDS011;2305;50.118;8.952;2022-12-24T14:53:15;16.00;;;3.90;;
4585;SDS011;2305;50.118;8.952;2022-12-24T14:55:55;18.73;;;4.43;;
4585;SDS011;2305;50.118;8.952;2022-12-24T14:58:24;24.60;;;5.90;;
4585;SDS011;2305;50.118;8.952;2022-12-24T15:00:55;25.70;;;4.70;;
4585;SDS011;2305;50.118;8.952;2022-12-24T15:03:27;17.53;;;4.70;;
4585;SDS011;2305;50.118;8.952;2022-12-24T15:06:01;24.97;;;4.97;;
4585;SDS011;2305;50.118;8.952;2022-12-24T15:08:32;22.80;;;4.47;;
4585;SDS011;2305;50.118;8.952;2022-12-24T15:11:07;22.87;;;4.30;;
4585;SDS011;2305;50.118;8.952;2022-12-24T15:13:37;29.30;;;4.33;;
4585;SDS011;2305;50.118;8.952;2022-12-24T15:16:10;20.77;;;4.27;;
4585;SDS011;2305;50.118;8.952;2022-12-24T15:18:42;17.37;;;3.60;;
4585;SDS011;2305;50.118;8.952;2022-12-24T15:21:17;23.83;;;4.50;;
4585;SDS011;2305;50.118;8.952;2022-12-24T15:23:48;19.50;;;4.70;;
4585;SDS011;2305;50.118;8.952;2022-12-24T15:26:21;16.80;;;4.53;;
4585;SDS011;2305;50.118;8.952;2022-12-24T15:28:53;15.80;;;4.23;;
4585;SDS011;2305;50.118;8.952;2022-12-24T15:31:29;25.43;;;4.90;;
4585;SDS011;2305;50.118;8.952;2022-12-24T15:34:01;18.47;;;3.97;;
4585;SDS011;2305;50.118;8.952;2022-12-24T15:36:33;26.67;;;5.60;;
4585;SDS011;2305;50.118;8.952;2022-12-24T15:39:05;19.03;;;5.07;;
4585;SDS011;2305;50.118;8.952;2022-12-24T15:41:37;16.60;;;4.80;;
4585;SDS011;2305;50.118;8.952;2022-12-24T15:44:30;23.67;;;4.63;;
4585;SDS011;2305;50.118;8.952;2022-12-24T15:47:03;24.83;;;5.00;;
4585;SDS011;2305;50.118;8.952;2022-12-24T15:49:33;23.93;;;6.30;;
4585;SDS011;2305;50.118;8.952;2022-12-24T15:52:04;16.27;;;4.73;;
4585;SDS011;2305;50.118;8.952;2022-12-24T15:54:35;8.07;;;3.33;;
4585;SDS011;2305;50.118;8.952;2022-12-24T15:57:12;30.10;;;4.67;;
4585;SDS011;2305;50.118;8.952;2022-12-24T15:59:50;19.57;;;4.10;;
4585;SDS011;2305;50.118;8.952;2022-12-24T16:02:30;19.33;;;3.97;;
4585;SDS011;2305;50.118;8.952;2022-12-24T16:05:30;16.60;;;4.10;;
4585;SDS011;2305;50.118;8.952;2022-12-24T16:08:02;17.17;;;3.97;;